Time;durP1;ratioP1;P1;durP2;ratioP2;P2;SDS_P1;SDS_P2;PMS_P1;PMS_P2;Temp;Humidity;BMP_temperature;BMP_pressure;BME280_temperature;BME280_humidity;BME280_pressure;Samples;Min_cycle;Max_cycle;Signal;HPM_P1;HPM_P2
2022/10/01 00:01:03;;;;;;;6.20;3.70;;;11.70;99.90;;;;;;5063679;28;20036;-76
2022/10/01 00:03:32;;;;;;;7.50;3.70;;;11.70;99.90;;;;;;5061217;28;20035;-74
2022/10/01 00:06:01;;;;;;;7.60;4.07;;;11.70;99.90;;;;;;5080314;28;20025;-77
2022/10/01 00:08:28;;;;;;;9.67;3.63;;;11.80;99.90;;;;;;5080519;28;20024;-77
2022/10/01 00:10:54;;;;;;;5.00;3.73;;;11.80;99.90;;;;;;5092063;28;20057;-76
2022/10/01 00:13:21;;;;;;;7.63;4.20;;;11.80;99.90;;;;;;5094438;28;20028;-75
2022/10/01 00:15:47;;;;;;;7.17;3.43;;;11.70;99.90;;;;;;5094047;28;21028;-78
2022/10/01 00:18:15;;;;;;;6.23;3.93;;;11.80;99.90;;;;;;5061095;28;20044;-76
2022/10/01 00:20:42;;;;;;;7.00;4.20;;;11.80;99.90;;;;;;5078637;28;20044;-77
2022/10/01 00:23:13;;;;;;;6.37;3.70;;;11.80;99.90;;;;;;5056915;28;20024;-77
2022/10/01 00:25:42;;;;;;;7.47;4.10;;;11.80;99.90;;;;;;5060675;28;20032;-75
2022/10/01 00:28:08;;;;;;;11.13;4.63;;;11.80;99.90;;;;;;5078250;28;20027;-78
2022/10/01 00:30:34;;;;;;;9.07;4.33;;;11.80;99.90;;;;;;5076298;28;20028;-77
2022/10/01 00:32:59;;;;;;;7.83;4.57;;;11.80;99.90;;;;;;5093098;28;20041;-77
2022/10/01 00:35:25;;;;;;;8.30;4.73;;;11.60;99.90;;;;;;5076529;28;20062;-76
2022/10/01 00:37:51;;;;;;;14.00;5.37;;;11.50;99.90;;;;;;5077073;28;20427;-77
2022/10/01 00:40:20;;;;;;;9.10;5.67;;;11.40;99.90;;;;;;5077814;28;20043;-78
2022/10/01 00:42:47;;;;;;;6.87;4.77;;;11.30;99.90;;;;;;5070265;28;20028;-76
2022/10/01 00:45:16;;;;;;;6.77;5.93;;;11.30;99.90;;;;;;5095197;28;20025;-78
2022/10/01 00:47:56;;;;;;;7.80;6.17;;;11.20;99.90;;;;;;5060283;28;20035;-77
2022/10/01 00:50:31;;;;;;;8.50;6.73;;;11.10;99.90;;;;;;5078227;28;20063;-77
2022/10/01 00:53:03;;;;;;;12.80;7.67;;;11.10;99.90;;;;;;5076279;28;20028;-75
2022/10/01 00:55:35;;;;;;;13.83;7.73;;;11.00;99.90;;;;;;5093961;28;20036;-77
2022/10/01 00:58:02;;;;;;;14.23;8.10;;;10.90;99.90;;;;;;5059792;28;20070;-77
2022/10/01 01:00:29;;;;;;;14.80;8.67;;;10.90;99.90;;;;;;5062287;28;20037;-77
2022/10/01 01:02:54;;;;;;;9.53;7.77;;;10.90;99.90;;;;;;5059581;28;20032;-75
2022/10/01 01:05:22;;;;;;;12.87;7.97;;;10.90;99.90;;;;;;5096279;28;20027;-76
2022/10/01 01:07:51;;;;;;;12.73;8.70;;;10.90;99.90;;;;;;5081071;28;20024;-76
2022/10/01 01:10:26;;;;;;;12.33;8.23;;;10.90;99.90;;;;;;5058685;28;20068;-75
2022/10/01 01:13:14;;;;;;;16.63;7.97;;;10.90;99.90;;;;;;5093913;28;20594;-76
2022/10/01 01:15:59;;;;;;;14.17;8.97;;;10.90;99.90;;;;;;5077478;28;20077;-77
2022/10/01 01:18:39;;;;;;;15.27;9.43;;;10.80;99.90;;;;;;5074712;28;20035;-77
2022/10/01 01:21:30;;;;;;;10.47;8.27;;;10.80;99.90;;;;;;5063545;28;20032;-77
2022/10/01 01:24:22;;;;;;;10.37;7.67;;;10.80;99.90;;;;;;5046399;28;20044;-76
2022/10/01 01:27:24;;;;;;;12.33;9.07;;;10.80;99.90;;;;;;5057418;28;20056;-77
2022/10/01 01:30:09;;;;;;;10.02;6.72;;;10.70;99.90;;;;;;5075154;28;20064;-77
2022/10/01 01:32:49;;;;;;;8.83;7.20;;;10.80;99.90;;;;;;5077085;28;20054;-76
2022/10/01 01:35:30;;;;;;;11.20;7.40;;;10.70;99.90;;;;;;5091757;28;20028;-75
2022/10/01 01:38:23;;;;;;;10.83;7.47;;;10.70;99.90;;;;;;5077765;28;20036;-76
2022/10/01 01:40:54;;;;;;;9.80;7.35;;;10.70;99.90;;;;;;5055132;28;20032;-76
2022/10/01 01:43:28;;;;;;;15.37;8.93;;;10.70;99.90;;;;;;5059455;28;20178;-77
2022/10/01 01:45:54;;;;;;;9.40;6.97;;;10.70;99.90;;;;;;5076798;28;20037;-75
2022/10/01 01:48:26;;;;;;;10.63;7.50;;;10.70;99.90;;;;;;5076978;28;20028;-78
2022/10/01 01:51:32;;;;;;;9.18;7.57;;;10.60;99.90;;;;;;5093434;28;20221;-76
2022/10/01 01:53:58;;;;;;;10.33;7.30;;;10.70;99.90;;;;;;5078943;28;20024;-76
2022/10/01 01:56:23;;;;;;;10.13;7.80;;;10.70;99.90;;;;;;5058349;28;20024;-77
2022/10/01 01:58:51;;;;;;;10.03;7.63;;;10.60;99.90;;;;;;5091445;28;20051;-76
2022/10/01 02:01:30;;;;;;;10.57;8.00;;;10.70;99.90;;;;;;5092216;28;20020;-75
2022/10/01 02:03:58;;;;;;;18.00;7.60;;;10.60;99.90;;;;;;5058038;28;20487;-76
2022/10/01 02:06:41;;;;;;;12.20;8.30;;;10.60;99.90;;;;;;5093919;28;20048;-76
2022/10/01 02:09:27;;;;;;;11.80;8.03;;;10.60;99.90;;;;;;5077148;28;20035;-75
2022/10/01 02:11:59;;;;;;;11.23;7.77;;;10.60;99.90;;;;;;5079017;28;20097;-77
2022/10/01 02:14:31;;;;;;;11.25;7.30;;;10.60;99.90;;;;;;5076391;28;20035;-77
2022/10/01 02:17:02;;;;;;;10.93;7.78;;;10.60;99.90;;;;;;5092886;28;20059;-77
2022/10/01 02:19:42;;;;;;;12.53;6.77;;;10.60;99.90;;;;;;5061875;28;20032;-77
2022/10/01 02:22:39;;;;;;;9.30;6.17;;;10.60;99.90;;;;;;5066930;28;20024;-74
2022/10/01 02:25:07;;;;;;;8.30;6.73;;;10.60;99.90;;;;;;5077672;28;20100;-76
2022/10/01 02:27:43;;;;;;;9.23;7.03;;;10.60;99.90;;;;;;5079948;28;20017;-76
2022/10/01 02:30:10;;;;;;;8.97;6.93;;;10.60;99.90;;;;;;5082188;28;20047;-75
2022/10/01 02:32:39;;;;;;;12.87;7.23;;;10.60;99.90;;;;;;5082733;28;20107;-77
2022/10/01 02:35:07;;;;;;;8.40;6.77;;;10.60;99.90;;;;;;5063758;28;20502;-76
2022/10/01 02:37:35;;;;;;;10.07;7.23;;;10.60;99.90;;;;;;5062373;28;20123;-75
2022/10/01 02:40:03;;;;;;;8.87;6.80;;;10.60;99.90;;;;;;5063921;28;20081;-77
2022/10/01 02:42:31;;;;;;;8.77;6.03;;;10.60;99.90;;;;;;5095635;28;20032;-76
2022/10/01 02:45:02;;;;;;;11.13;6.70;;;10.60;99.90;;;;;;5081393;28;20086;-75
2022/10/01 02:47:42;;;;;;;9.43;6.57;;;10.60;99.90;;;;;;5065265;28;20048;-76
2022/10/01 02:50:08;;;;;;;8.80;6.23;;;10.60;99.90;;;;;;5098238;28;20718;-77
2022/10/01 02:52:41;;;;;;;8.43;5.60;;;10.60;99.90;;;;;;5078658;28;20050;-76
2022/10/01 02:55:16;;;;;;;;;;;10.60;99.90;;;;;;5081715;28;20035;-75
2022/10/01 02:57:42;;;;;;;9.83;6.37;;;10.70;99.90;;;;;;5064690;28;19973;-76
2022/10/01 03:00:10;;;;;;;8.27;6.80;;;10.70;99.90;;;;;;5078896;28;20028;-76
2022/10/01 03:02:36;;;;;;;6.93;5.87;;;10.60;99.90;;;;;;5080538;28;20020;-76
2022/10/01 03:05:02;;;;;;;9.83;6.40;;;10.60;99.90;;;;;;5061490;28;20097;-76
2022/10/01 03:07:30;;;;;;;10.20;7.27;;;10.60;99.90;;;;;;5066267;28;20044;-76
2022/10/01 03:09:56;;;;;;;8.70;6.83;;;10.60;99.90;;;;;;5094888;28;20024;-76
2022/10/01 03:12:22;;;;;;;10.30;5.47;;;10.60;99.90;;;;;;5062439;28;20063;-77
2022/10/01 03:14:48;;;;;;;7.17;6.20;;;10.70;99.90;;;;;;5061729;28;20058;-76
2022/10/01 03:17:19;;;;;;;7.83;5.83;;;10.60;99.90;;;;;;5059462;28;20036;-75
2022/10/01 03:19:45;;;;;;;13.37;7.13;;;10.60;99.90;;;;;;5060367;28;20132;-77
2022/10/01 03:22:13;;;;;;;7.30;6.57;;;10.60;99.90;;;;;;5061122;28;20102;-76
2022/10/01 03:24:41;;;;;;;7.77;6.13;;;10.60;99.90;;;;;;5081185;28;20039;-76
2022/10/01 03:27:07;;;;;;;11.90;7.10;;;10.60;99.90;;;;;;5061414;28;20067;-75
2022/10/01 03:29:32;;;;;;;10.77;6.17;;;10.60;99.90;;;;;;5062344;28;20083;-76
2022/10/01 03:31:58;;;;;;;8.00;6.80;;;10.70;99.90;;;;;;5080888;28;20032;-76
2022/10/01 03:34:23;;;;;;;7.13;6.13;;;10.70;99.90;;;;;;5081270;28;20396;-76
2022/10/01 03:36:51;;;;;;;8.20;6.27;;;10.70;99.90;;;;;;5080486;28;20084;-75
2022/10/01 03:39:17;;;;;;;7.60;5.57;;;10.70;99.90;;;;;;5060655;28;20079;-75
2022/10/01 03:41:45;;;;;;;8.80;5.77;;;10.70;99.90;;;;;;5096231;28;20047;-76
2022/10/01 03:44:11;;;;;;;8.50;5.70;;;10.70;99.90;;;;;;5077860;28;20062;-75
2022/10/01 03:46:37;;;;;;;8.30;5.20;;;10.70;99.90;;;;;;5093765;28;20024;-75
2022/10/01 03:49:03;;;;;;;8.13;4.67;;;10.80;99.90;;;;;;5095833;28;20028;-76
2022/10/01 03:51:29;;;;;;;9.57;6.10;;;10.80;99.90;;;;;;5096009;28;20056;-75
2022/10/01 03:53:58;;;;;;;7.10;5.17;;;10.80;99.90;;;;;;5094247;28;20231;-76
2022/10/01 03:56:24;;;;;;;8.87;5.37;;;10.70;99.90;;;;;;5058542;28;20020;-77
2022/10/01 03:58:50;;;;;;;13.07;5.13;;;10.70;99.90;;;;;;5061854;28;20027;-75
2022/10/01 04:01:18;;;;;;;4.63;3.77;;;10.70;99.90;;;;;;5060496;28;20765;-75
2022/10/01 04:03:44;;;;;;;3.73;3.13;;;10.70;99.90;;;;;;5061392;28;20043;-76
2022/10/01 04:06:10;;;;;;;5.37;2.83;;;10.70;99.90;;;;;;5095684;28;20016;-76
2022/10/01 04:08:38;;;;;;;3.40;1.50;;;10.80;99.90;;;;;;5080033;28;20054;-76
2022/10/01 04:11:05;;;;;;;4.70;1.60;;;10.80;99.90;;;;;;5093381;28;20146;-74
2022/10/01 04:13:31;;;;;;;2.07;1.53;;;10.90;99.90;;;;;;5096264;28;20361;-76
2022/10/01 04:15:57;;;;;;;3.70;1.27;;;10.80;99.90;;;;;;5065177;28;20031;-75
2022/10/01 04:18:25;;;;;;;2.53;1.33;;;10.90;99.90;;;;;;5082412;28;20039;-76
2022/10/01 04:20:51;;;;;;;3.17;1.30;;;10.90;99.90;;;;;;5078029;28;20100;-76
2022/10/01 04:23:16;;;;;;;2.97;0.90;;;11.00;99.90;;;;;;5079368;28;20058;-74
2022/10/01 04:25:44;;;;;;;1.80;1.00;;;11.00;99.90;;;;;;5095523;28;20027;-75
2022/10/01 04:28:11;;;;;;;1.73;0.60;;;11.00;99.90;;;;;;5061507;28;20024;-75
2022/10/01 04:30:42;;;;;;;4.67;1.10;;;11.00;99.90;;;;;;5094524;28;20024;-76
2022/10/01 04:33:12;;;;;;;2.47;0.80;;;11.00;99.90;;;;;;5061042;28;20030;-75
2022/10/01 04:35:38;;;;;;;1.47;0.83;;;11.00;99.90;;;;;;5097102;28;20120;-76
2022/10/01 04:38:06;;;;;;;1.90;0.60;;;11.00;99.90;;;;;;5093570;28;20122;-77
2022/10/01 04:40:34;;;;;;;3.03;0.93;;;11.00;99.90;;;;;;5096869;28;20032;-76
2022/10/01 04:43:05;;;;;;;1.73;0.60;;;11.10;99.90;;;;;;5064350;28;20408;-75
2022/10/01 04:45:31;;;;;;;1.57;0.60;;;11.00;99.90;;;;;;5079228;28;20101;-77
2022/10/01 04:47:58;;;;;;;2.60;0.40;;;11.10;99.90;;;;;;5062882;28;20115;-77
2022/10/01 04:50:25;;;;;;;0.77;0.40;;;11.10;99.90;;;;;;5082157;28;20024;-76
2022/10/01 04:52:51;;;;;;;0.30;0.20;;;11.10;99.90;;;;;;5059280;28;20035;-77
2022/10/01 04:55:18;;;;;;;0.70;0.43;;;11.10;99.90;;;;;;5093392;28;20456;-77
2022/10/01 04:57:44;;;;;;;1.83;0.20;;;11.10;99.90;;;;;;5078612;28;20043;-77
2022/10/01 05:00:13;;;;;;;2.27;0.40;;;11.20;99.90;;;;;;5094281;28;20107;-77
2022/10/01 05:02:42;;;;;;;0.60;0.30;;;11.20;99.90;;;;;;5063395;28;20019;-75
2022/10/01 05:05:08;;;;;;;0.20;0.10;;;11.20;99.90;;;;;;5079504;28;20068;-76
2022/10/01 05:07:34;;;;;;;0.53;0.20;;;11.30;99.90;;;;;;5096440;28;20117;-77
2022/10/01 05:10:00;;;;;;;1.77;0.30;;;11.30;99.90;;;;;;5061813;28;20040;-75
2022/10/01 05:12:29;;;;;;;2.83;0.30;;;11.30;99.90;;;;;;5091545;28;20036;-77
2022/10/01 05:14:55;;;;;;;0.27;0.20;;;11.30;99.90;;;;;;5060955;28;20028;-77
2022/10/01 05:17:21;;;;;;;0.20;0.20;;;11.30;99.90;;;;;;5077847;28;20024;-77
2022/10/01 05:19:49;;;;;;;1.17;0.40;;;11.30;99.90;;;;;;5077524;28;20028;-76
2022/10/01 05:22:15;;;;;;;0.27;0.27;;;11.30;99.90;;;;;;5063137;28;20020;-76
2022/10/01 05:24:42;;;;;;;0.30;0.30;;;11.30;99.90;;;;;;5092178;28;20070;-77
2022/10/01 05:27:12;;;;;;;0.93;0.20;;;11.20;99.90;;;;;;5060986;28;20023;-77
2022/10/01 05:29:40;;;;;;;0.40;0.23;;;11.30;99.90;;;;;;5076186;28;20025;-75
2022/10/01 05:32:08;;;;;;;0.60;0.20;;;11.30;99.90;;;;;;5059385;28;20064;-75
2022/10/01 05:34:36;;;;;;;0.40;0.20;;;11.30;99.90;;;;;;5061309;28;20461;-75
2022/10/01 05:37:02;;;;;;;1.83;0.30;;;11.30;99.90;;;;;;5059313;28;20308;-76
2022/10/01 05:39:31;;;;;;;1.57;0.20;;;11.30;99.90;;;;;;5060092;28;20028;-76
2022/10/01 05:41:57;;;;;;;0.20;0.20;;;11.30;99.90;;;;;;5094329;28;20116;-75
2022/10/01 05:44:25;;;;;;;0.73;0.20;;;11.30;99.90;;;;;;5093083;28;20023;-75
2022/10/01 05:46:52;;;;;;;1.90;0.30;;;11.30;99.90;;;;;;5093389;28;20024;-76
2022/10/01 05:49:18;;;;;;;1.73;0.20;;;11.30;99.90;;;;;;5077514;28;20466;-76
2022/10/01 05:51:46;;;;;;;0.23;0.20;;;11.30;99.90;;;;;;5092256;28;20536;-77
2022/10/01 05:54:12;;;;;;;0.73;0.23;;;11.30;99.90;;;;;;5078768;28;20081;-76
2022/10/01 05:56:38;;;;;;;0.50;0.20;;;11.30;99.90;;;;;;5061736;28;20020;-76
2022/10/01 05:59:04;;;;;;;0.53;0.20;;;11.30;99.90;;;;;;5080012;28;20024;-77
2022/10/01 06:01:31;;;;;;;0.20;0.10;;;11.30;99.90;;;;;;5061337;28;20059;-76
2022/10/01 06:03:57;;;;;;;0.60;0.23;;;11.30;99.90;;;;;;5094456;28;20467;-75
2022/10/01 06:06:26;;;;;;;0.47;0.30;;;11.40;99.90;;;;;;5092066;28;20036;-76
2022/10/01 06:08:52;;;;;;;0.47;0.20;;;11.40;99.90;;;;;;5093626;28;20082;-76
2022/10/01 06:11:18;;;;;;;0.47;0.30;;;11.40;99.90;;;;;;5078150;28;20029;-76
2022/10/01 06:13:45;;;;;;;0.10;0.10;;;11.50;99.90;;;;;;5072804;28;20052;-76
2022/10/01 06:16:12;;;;;;;2.47;0.30;;;11.50;99.90;;;;;;5066790;28;20036;-77
2022/10/01 06:18:39;;;;;;;1.30;0.40;;;11.50;99.90;;;;;;5077245;28;20043;-75
2022/10/01 06:21:04;;;;;;;1.33;0.77;;;11.50;99.90;;;;;;5091661;28;21603;-77
2022/10/01 06:23:30;;;;;;;3.23;0.50;;;11.60;99.90;;;;;;5057729;28;20039;-75
2022/10/01 06:26:01;;;;;;;0.73;0.10;;;11.60;99.90;;;;;;5089320;28;21697;-76
2022/10/01 06:28:27;;;;;;;0.40;0.20;;;11.60;99.90;;;;;;5059117;28;20454;-77
2022/10/01 06:30:54;;;;;;;0.20;0.10;;;11.60;99.90;;;;;;5058603;28;20030;-77
2022/10/01 06:33:20;;;;;;;0.20;0.20;;;11.70;99.90;;;;;;5077737;28;21661;-76
2022/10/01 06:35:48;;;;;;;0.17;0.10;;;11.70;99.90;;;;;;5061355;28;20056;-76
2022/10/01 06:38:15;;;;;;;0.53;0.20;;;11.80;99.90;;;;;;5093719;28;20075;-77
2022/10/01 06:40:41;;;;;;;0.20;0.17;;;11.90;99.90;;;;;;5075705;28;20039;-77
2022/10/01 06:43:07;;;;;;;2.43;0.20;;;11.90;99.90;;;;;;5057696;28;20032;-76
2022/10/01 06:45:39;;;;;;;1.50;0.40;;;11.90;99.90;;;;;;5058032;28;20036;-76
2022/10/01 06:48:06;;;;;;;0.63;0.20;;;12.00;99.90;;;;;;5080215;28;20021;-77
2022/10/01 06:50:33;;;;;;;0.63;0.30;;;12.00;99.90;;;;;;5058308;28;20028;-76
2022/10/01 06:53:00;;;;;;;0.43;0.20;;;12.10;99.90;;;;;;5094421;28;20028;-77
2022/10/01 06:55:31;;;;;;;0.37;0.20;;;12.10;99.90;;;;;;5059950;28;20031;-76
2022/10/01 06:58:10;;;;;;;0.23;0.20;;;12.20;99.90;;;;;;5060094;28;20029;-77
2022/10/01 07:00:37;;;;;;;0.60;0.30;;;12.20;99.90;;;;;;5091918;28;20192;-77
2022/10/01 07:03:09;;;;;;;1.77;0.30;;;12.20;99.90;;;;;;5077285;28;20048;-76
2022/10/01 07:05:37;;;;;;;4.33;0.40;;;12.30;99.90;;;;;;5059829;28;20036;-76
2022/10/01 07:08:03;;;;;;;0.83;0.13;;;12.40;99.90;;;;;;5058768;28;20043;-77
2022/10/01 07:10:29;;;;;;;2.43;0.40;;;12.30;99.90;;;;;;5093026;28;20403;-74
2022/10/01 07:12:54;;;;;;;0.67;0.30;;;12.40;99.90;;;;;;5058676;28;20024;-76
2022/10/01 07:15:21;;;;;;;1.07;0.40;;;12.40;99.90;;;;;;5095616;28;20032;-77
2022/10/01 07:17:49;;;;;;;0.47;0.20;;;12.50;99.90;;;;;;5064048;28;20102;-76
2022/10/01 07:20:17;;;;;;;0.93;0.30;;;12.70;99.90;;;;;;5096043;28;20925;-78
2022/10/01 07:22:43;;;;;;;1.80;0.30;;;12.80;99.90;;;;;;5063925;28;20338;-78
2022/10/01 07:25:12;;;;;;;2.13;0.60;;;12.90;99.90;;;;;;5095658;28;20153;-77
2022/10/01 07:27:38;;;;;;;2.57;0.40;;;13.00;99.90;;;;;;5078765;28;20028;-76
2022/10/01 07:30:05;;;;;;;0.60;0.30;;;13.00;99.90;;;;;;5079910;28;20025;-76
2022/10/01 07:32:32;;;;;;;1.27;0.20;;;13.00;99.90;;;;;;5075732;28;20033;-77
2022/10/01 07:35:02;;;;;;;0.80;0.20;;;13.10;99.90;;;;;;5078965;28;20036;-76
2022/10/01 07:37:28;;;;;;;1.07;0.30;;;13.10;99.90;;;;;;5060464;28;20025;-78
2022/10/01 07:39:56;;;;;;;3.30;0.90;;;13.20;99.90;;;;;;5081477;28;20487;-77
2022/10/01 07:42:22;;;;;;;0.83;0.30;;;13.20;99.90;;;;;;5093748;28;20020;-76
2022/10/01 07:44:47;;;;;;;0.70;0.30;;;13.30;99.90;;;;;;5092522;28;20074;-77
2022/10/01 07:47:14;;;;;;;2.80;0.40;;;13.40;99.90;;;;;;5059819;28;20031;-78
2022/10/01 07:49:47;;;;;;;3.30;0.50;;;13.40;99.90;;;;;;5078423;28;20453;-76
2022/10/01 07:52:18;;;;;;;1.13;0.67;;;13.60;99.90;;;;;;5060646;28;20109;-77
2022/10/01 07:54:49;;;;;;;2.20;0.47;;;13.70;99.90;;;;;;5062488;28;20024;-75
2022/10/01 07:57:17;;;;;;;1.00;0.20;;;13.80;99.90;;;;;;5096119;28;20064;-77
2022/10/01 07:59:44;;;;;;;0.67;0.23;;;13.80;99.90;;;;;;5058820;28;20036;-76
2022/10/01 08:02:14;;;;;;;2.53;0.33;;;13.80;99.90;;;;;;5076442;28;20025;-77
2022/10/01 08:07:29;;;;;;;1.63;0.30;;;13.90;99.90;;;;;;5077878;28;20035;-76
2022/10/01 08:09:56;;;;;;;0.40;0.40;;;13.90;99.90;;;;;;5078439;28;20115;-78
2022/10/01 08:12:30;;;;;;;1.20;0.53;;;13.90;99.90;;;;;;5077819;28;20089;-77
2022/10/01 08:15:09;;;;;;;1.23;0.40;;;14.10;99.90;;;;;;5059904;28;20032;-76
2022/10/01 08:17:35;;;;;;;2.77;0.87;;;14.00;99.90;;;;;;5093860;28;20028;-78
2022/10/01 08:20:01;;;;;;;0.93;0.50;;;14.10;99.90;;;;;;5059728;28;20035;-77
2022/10/01 08:22:28;;;;;;;0.67;0.30;;;14.10;99.90;;;;;;5060043;28;20031;-77
2022/10/01 08:24:54;;;;;;;0.53;0.40;;;14.20;99.90;;;;;;5077617;28;20028;-76
2022/10/01 08:27:19;;;;;;;2.83;0.50;;;14.20;99.90;;;;;;5095402;28;20126;-78
2022/10/01 08:29:47;;;;;;;3.63;1.07;;;14.30;99.90;;;;;;5061895;28;20148;-76
2022/10/01 08:32:15;;;;;;;1.57;0.60;;;14.30;99.90;;;;;;5079651;28;20028;-76
2022/10/01 08:34:43;;;;;;;1.20;0.40;;;14.30;99.90;;;;;;5078489;28;20441;-74
2022/10/01 08:37:08;;;;;;;1.70;0.57;;;14.20;99.90;;;;;;5092279;28;20024;-76
2022/10/01 08:39:35;;;;;;;1.37;0.37;;;14.10;99.90;;;;;;5059952;28;20054;-77
2022/10/01 08:42:14;;;;;;;3.50;0.77;;;14.10;99.90;;;;;;5059475;28;20020;-78
2022/10/01 08:44:43;;;;;;;1.73;0.50;;;14.10;99.90;;;;;;5078086;28;20544;-77
2022/10/01 08:47:27;;;;;;;1.43;0.50;;;14.20;99.90;;;;;;5057531;28;20431;-77
2022/10/01 08:50:21;;;;;;;2.23;0.90;;;14.30;99.90;;;;;;5077447;28;20036;-76
2022/10/01 08:52:58;;;;;;;3.83;0.90;;;14.30;99.90;;;;;;5055076;28;20069;-74
2022/10/01 08:55:26;;;;;;;3.53;0.80;;;14.50;99.90;;;;;;5092070;28;20456;-76
2022/10/01 08:57:59;;;;;;;3.77;0.87;;;14.60;99.90;;;;;;5057735;28;20488;-75
2022/10/01 09:00:28;;;;;;;1.55;0.47;;;14.80;99.90;;;;;;5060748;28;20031;-74
2022/10/01 09:02:57;;;;;;;2.83;1.00;;;14.70;99.90;;;;;;5076431;28;20047;-76
2022/10/01 09:05:40;;;;;;;4.50;0.80;;;14.80;99.90;;;;;;5077519;28;20105;-77
2022/10/01 09:08:14;;;;;;;4.47;0.80;;;14.80;99.90;;;;;;5078329;28;20476;-75
2022/10/01 09:10:44;;;;;;;3.63;0.90;;;14.90;99.90;;;;;;5091738;28;20101;-76
2022/10/01 09:13:51;;;;;;;3.57;1.00;;;14.70;99.90;;;;;;5077382;28;20043;-76
2022/10/01 09:16:37;;;;;;;2.37;0.90;;;14.50;99.90;;;;;;5031751;28;20036;-74
2022/10/01 09:19:41;;;;;;;5.53;1.30;;;14.20;99.90;;;;;;5075793;28;20024;-75
2022/10/01 09:22:35;;;;;;;6.37;1.63;;;14.20;99.90;;;;;;5075408;28;20043;-76
2022/10/01 09:25:12;;;;;;;6.10;1.40;;;14.30;99.90;;;;;;5057589;28;20204;-75
2022/10/01 09:27:38;;;;;;;6.70;1.20;;;14.50;99.90;;;;;;5075510;28;20028;-74
2022/10/01 09:30:11;;;;;;;3.87;1.30;;;14.60;99.90;;;;;;5058363;28;20032;-75
2022/10/01 09:32:49;;;;;;;6.43;1.63;;;14.80;99.90;;;;;;5075641;28;20037;-78
2022/10/01 09:35:31;;;;;;;5.33;1.30;;;14.70;99.90;;;;;;5076200;28;20025;-76
2022/10/01 09:38:09;;;;;;;3.40;1.05;;;14.80;99.90;;;;;;5058309;28;20036;-74
2022/10/01 09:40:52;;;;;;;3.83;1.47;;;14.80;99.90;;;;;;5092931;28;20082;-74
2022/10/01 09:43:21;;;;;;;6.30;1.13;;;14.90;99.90;;;;;;5079377;28;20017;-77
2022/10/01 09:45:48;;;;;;;5.10;1.30;;;15.00;99.90;;;;;;5060067;28;20116;-75
2022/10/01 09:48:22;;;;;;;6.30;1.45;;;15.20;99.90;;;;;;5095754;28;20025;-75
2022/10/01 09:51:00;;;;;;;6.68;1.50;;;15.30;99.90;;;;;;5066890;28;20592;-74
2022/10/01 09:54:11;;;;;;;6.00;1.60;;;15.50;99.90;;;;;;5059584;28;20039;-77
2022/10/01 09:57:02;;;;;;;3.40;1.50;;;15.80;99.90;;;;;;5073905;28;20056;-75
2022/10/01 09:59:33;;;;;;;4.90;1.65;;;16.20;99.90;;;;;;5094084;28;20042;-76
2022/10/01 10:02:02;;;;;;;6.38;1.35;;;16.30;99.90;;;;;;5092044;28;20020;-76
2022/10/01 10:04:28;;;;;;;6.72;1.98;;;16.40;99.90;;;;;;5077371;28;20901;-76
2022/10/01 10:07:04;;;;;;;5.68;1.63;;;16.30;99.90;;;;;;5076865;28;20027;-76
2022/10/01 10:09:34;;;;;;;6.18;2.05;;;16.30;99.90;;;;;;5063249;28;20444;-75
2022/10/01 10:12:01;;;;;;;6.38;1.80;;;16.40;99.90;;;;;;5059666;28;20054;-76
2022/10/01 10:14:35;;;;;;;6.05;1.88;;;16.40;99.90;;;;;;5093449;28;20032;-76
2022/10/01 10:17:06;;;;;;;10.90;1.98;;;16.60;99.90;;;;;;5058523;28;20043;-76
2022/10/01 10:19:32;;;;;;;8.93;2.63;;;16.60;99.90;;;;;;5070023;28;20078;-77
2022/10/01 10:22:11;;;;;;;5.88;1.50;;;16.50;99.90;;;;;;5093616;28;20364;-76
2022/10/01 10:24:37;;;;;;;5.45;1.90;;;16.30;99.90;;;;;;5068734;28;20028;-78
2022/10/01 10:27:07;;;;;;;8.15;1.90;;;16.20;99.90;;;;;;5091772;28;20020;-76
2022/10/01 10:29:35;;;;;;;6.15;1.60;;;16.20;99.90;;;;;;5059247;28;20032;-77
2022/10/01 10:32:23;;;;;;;9.63;2.20;;;16.00;99.90;;;;;;5076832;28;20028;-75
2022/10/01 10:34:49;;;;;;;7.40;2.47;;;15.60;99.90;;;;;;5069124;28;20028;-77
2022/10/01 10:37:19;;;;;;;11.60;2.45;;;15.30;99.90;;;;;;5091577;28;20160;-77
2022/10/01 10:39:51;;;;;;;7.68;2.42;;;15.40;99.90;;;;;;5058579;28;20020;-76
2022/10/01 10:42:21;;;;;;;10.25;2.45;;;15.70;99.90;;;;;;5092233;28;20021;-75
2022/10/01 10:44:50;;;;;;;5.90;2.03;;;15.90;99.90;;;;;;5059126;28;20028;-77
2022/10/01 10:47:18;;;;;;;7.78;1.73;;;16.00;99.90;;;;;;5062239;28;20025;-76
2022/10/01 10:49:52;;;;;;;5.93;2.30;;;16.00;99.90;;;;;;5096176;28;20032;-75
2022/10/01 10:52:28;;;;;;;5.22;2.00;;;16.20;99.90;;;;;;5065639;28;20119;-74
2022/10/01 10:54:56;;;;;;;10.43;2.53;;;16.20;99.90;;;;;;5080419;28;20023;-75
2022/10/01 10:57:27;;;;;;;5.22;1.80;;;16.30;99.90;;;;;;5085167;28;20043;-75
2022/10/01 11:00:14;;;;;;;13.43;3.70;;;16.60;99.90;;;;;;5077832;28;20547;-75
2022/10/01 11:02:50;;;;;;;8.48;2.10;;;16.80;99.90;;;;;;5097580;28;21059;-76
2022/10/01 11:05:19;;;;;;;9.85;2.17;;;17.00;99.90;;;;;;5068340;28;20032;-76
2022/10/01 11:07:47;;;;;;;8.57;2.60;;;16.90;99.90;;;;;;5095416;28;20125;-75
2022/10/01 11:10:43;;;;;;;6.68;2.05;;;16.90;99.90;;;;;;5061631;28;20032;-76
2022/10/01 11:13:24;;;;;;;5.93;1.75;;;17.10;99.90;;;;;;5068070;28;20032;-75
2022/10/01 11:16:15;;;;;;;6.95;2.60;;;17.10;99.90;;;;;;5079595;28;20092;-76
2022/10/01 11:19:01;;;;;;;7.28;1.90;;;16.80;99.90;;;;;;5082127;28;20035;-75
2022/10/01 11:21:40;;;;;;;8.95;1.92;;;16.10;99.90;;;;;;5061948;28;20032;-75
2022/10/01 11:24:15;;;;;;;8.68;2.70;;;15.60;99.90;;;;;;5095248;28;20021;-76
2022/10/01 11:26:51;;;;;;;11.20;2.83;;;15.20;99.90;;;;;;5064616;28;20062;-76
2022/10/01 11:29:36;;;;;;;8.65;3.05;;;15.10;99.90;;;;;;5082286;28;20024;-76
2022/10/01 11:32:23;;;;;;;10.93;3.53;;;15.10;99.90;;;;;;5065430;28;20426;-75
2022/10/01 11:34:55;;;;;;;13.07;3.30;;;15.10;99.90;;;;;;5078080;28;20101;-76
2022/10/01 11:37:40;;;;;;;9.80;2.28;;;15.20;99.90;;;;;;5061882;28;20437;-76
2022/10/01 11:40:18;;;;;;;13.50;3.50;;;15.20;99.90;;;;;;5079597;28;20050;-75
2022/10/01 11:42:46;;;;;;;13.30;3.25;;;15.20;99.90;;;;;;5095230;28;20028;-75
2022/10/01 11:45:22;;;;;;;7.73;2.30;;;15.00;99.90;;;;;;5061922;28;20565;-75
2022/10/01 11:48:13;;;;;;;7.97;2.30;;;14.80;99.90;;;;;;5063908;28;20028;-74
2022/10/01 11:50:46;;;;;;;4.53;1.90;;;14.80;99.90;;;;;;5060867;28;20028;-76
2022/10/01 11:53:23;;;;;;;7.53;2.10;;;14.80;99.90;;;;;;5061672;28;20050;-75
2022/10/01 11:59:21;;;;;;;11.60;2.30;;;14.70;99.90;;;;;;5077701;28;20518;-74
2022/10/01 12:02:22;;;;;;;7.40;2.20;;;14.50;99.90;;;;;;5069593;28;20636;-75
2022/10/01 12:04:57;;;;;;;10.90;2.73;;;14.40;99.90;;;;;;5077917;28;20036;-75
2022/10/01 12:07:37;;;;;;;10.43;3.03;;;14.30;99.90;;;;;;5095401;28;20036;-76
2022/10/01 12:10:28;;;;;;;7.97;4.07;;;14.20;99.90;;;;;;5063862;28;20042;-75
2022/10/01 12:13:06;;;;;;;11.33;3.00;;;14.10;99.90;;;;;;5081881;28;20113;-76
2022/10/01 12:15:56;;;;;;;9.97;2.90;;;14.00;99.90;;;;;;5063456;28;20024;-75
2022/10/01 12:18:45;;;;;;;18.00;2.70;;;13.80;99.90;;;;;;5061465;28;20032;-76
2022/10/01 12:21:21;;;;;;;9.27;2.60;;;13.60;99.90;;;;;;5061680;28;20039;-74
2022/10/01 12:24:04;;;;;;;12.07;3.97;;;13.60;99.90;;;;;;5078731;28;20024;-76
2022/10/01 12:26:53;;;;;;;10.97;3.50;;;13.50;99.90;;;;;;5096200;28;20036;-76
2022/10/01 12:29:44;;;;;;;10.80;2.77;;;13.40;99.90;;;;;;5069165;28;20078;-75
2022/10/01 12:32:10;;;;;;;5.60;1.40;;;13.20;99.90;;;;;;5097601;28;20024;-75
2022/10/01 12:34:41;;;;;;;5.87;1.83;;;13.10;99.90;;;;;;5080325;28;20029;-75
2022/10/01 12:37:11;;;;;;;5.40;1.20;;;13.10;99.90;;;;;;5071511;28;20494;-77
2022/10/01 12:40:21;;;;;;;6.83;1.90;;;13.10;99.90;;;;;;5094683;28;20132;-76
2022/10/01 12:42:50;;;;;;;3.57;1.23;;;13.10;99.90;;;;;;5054211;28;20036;-76
2022/10/01 12:45:53;;;;;;;6.23;1.67;;;13.20;99.90;;;;;;5061888;28;20021;-75
2022/10/01 12:48:34;;;;;;;6.88;1.80;;;13.30;99.90;;;;;;5079674;28;20103;-76
2022/10/01 12:51:15;;;;;;;8.17;2.00;;;13.20;99.90;;;;;;5095667;28;20187;-76
2022/10/01 12:53:45;;;;;;;5.43;1.57;;;13.60;99.90;;;;;;5077888;28;20032;-74
2022/10/01 12:56:32;;;;;;;8.60;2.27;;;13.80;99.90;;;;;;5060480;28;20024;-75
2022/10/01 12:59:25;;;;;;;5.83;2.17;;;14.00;99.90;;;;;;5060904;28;20113;-75
2022/10/01 13:02:26;;;;;;;5.87;2.03;;;14.10;99.90;;;;;;5064992;28;20055;-76
2022/10/01 13:05:12;;;;;;;11.37;3.17;;;15.00;99.90;;;;;;5059712;28;20028;-75
2022/10/01 13:07:51;;;;;;;7.10;2.83;;;15.60;99.90;;;;;;5008372;28;20032;-75
2022/10/01 13:10:32;;;;;;;8.65;2.33;;;16.10;99.90;;;;;;5076307;28;20333;-76
2022/10/01 13:13:10;;;;;;;10.23;2.63;;;16.00;99.90;;;;;;5077082;28;20032;-76
2022/10/01 13:15:45;;;;;;;10.93;2.50;;;15.40;99.90;;;;;;5079192;28;20039;-74
2022/10/01 13:18:43;;;;;;;12.80;3.53;;;15.10;99.90;;;;;;5060664;28;20024;-75